No Warnings, Watches, or Advisories

Active alerts


No alerts

Hours of Daylight

15 hrs 0 min 25 sec
of Daylight Today
62.5% Day 37.5% Night Which is 52 sec Shorter
Than Yesterday

South Webcam more information South Webcam


NorthWest Webcam more information NorthWest Webcam


You find our weather info also at:

UK Metoffice

Weather Underground

Mid-Atlantic Weather Network

WeatherlinkIP

Citizen Weather Observer Program (CWOP)

HAMweather, WeatherForYou, PWS Weather



Nearby METAR Reports

   
KDUJ - Du Bois, Pennsylvania, USA
Distance from station: NNE 16 mi
Updated: Jul 5 2022 2:00 pm
Overcast  
Overcast  
   Wind: SW 9.2 mph
Wind: SW 9.2 mph
Temperature: 71.6°F
Dew Point: 66.2°F
Humidity: 83%
Barometer: 29.96 inHg
Clouds: Overcast
Visibility: 10 mi
Cloud details: Overcast 1000 ft
KDUJ 051800Z AUTO 23008KT 10SM OVC010 22/19 A2996 RMK AO2 CIG 007V014 T02220194
KIDI - Indiana/Stewart, Pennsylvania, USA
Distance from station: SSW 23 mi
Updated: Jul 5 2022 2:35 pm
Overcast  
Overcast  
   Wind: WSW 8.1 mph
Wind: WSW 8.1 mph
Temperature: 75.2°F
Dew Point: 71.6°F
Humidity: 89%
Barometer: 30 inHg
Clouds: Overcast
Visibility: 10 mi
Cloud details: Mostly Cloudy 1400 ft,
Overcast 2000 ft
KIDI 051835Z AUTO 25007KT 230V290 10SM BKN014 OVC020 24/22 A3000 RMK A01
KFIG - Clearfield, Pennsylvania, USA
Distance from station: ENE 31 mi
Updated: Jul 5 2022 2:37 pm
Overcast  
Overcast  
   Wind: SW 11.5 mph
Wind: SW 11.5 mph
Temperature: 75.2°F
Dew Point: 69.8°F
Humidity: 83%
Barometer: 29.95 inHg
Clouds: Overcast
Visibility: 10 mi
Cloud details: Partly Cloudy 1300 ft,
Mostly Cloudy 1800 ft,
Overcast 3100 ft
KFIG 051837Z AUTO 22010KT 10SM SCT013 BKN018 OVC031 24/21 A2995 RMK AO2 T02390206
KJST - Johnstown, Pennsylvania, USA
Distance from station: S 44 mi
Updated: Jul 5 2022 2:43 pm
Mostly Cloudy  
Mostly Cloudy  
   Wind: WSW 15 mph
Wind: WSW 15 mph
Temperature: 73.4°F
Dew Point: 66.2°F
Humidity: 78%
Barometer: 30 inHg
Clouds: Mostly Cloudy
Visibility: 10 mi
Cloud details: Mostly Cloudy 1100 ft,
Mostly Cloudy 1800 ft,
Mostly Cloudy 2400 ft
KJST 051843Z AUTO 24013KT 10SM BKN011 BKN018 BKN024 23/19 A3000 RMK AO2 T02330194 TSNO
KPIT - Pittsburgh, Pennsylvania, USA
Distance from station: WSW 74 mi
Updated: Jul 5 2022 2:21 pm
Overcast  
Overcast  
   Wind: WSW 8.1 mph
Wind: WSW 8.1 mph
Temperature: 77°F
Dew Point: 68°F
Humidity: 74%
Barometer: 29.96 inHg
Clouds: Overcast
Visibility: 10 mi
Cloud details: Few Clouds 1900 ft,
Mostly Cloudy 6000 ft,
Overcast 20000 ft
KPIT 051821Z 24007KT 10SM FEW019 BKN060 OVC200 25/20 A2996 RMK AO2 T02500200
KLBE - Latrobe/Westmorl, Pennsylvania, USA
Distance from station: SSW 52 mi
Updated: Jul 5 2022 1:47 pm
Mostly Cloudy  
Mostly Cloudy  
   Wind: SSW 11.5 mph
Wind: SSW 11.5 mph
Temperature: 78.8°F
Dew Point: 71.6°F
Humidity: 79%
Barometer: 29.97 inHg
Clouds: Mostly Cloudy
Visibility: 15 mi
Cloud details: Partly Cloudy 1500 ft,
Mostly Cloudy 2200 ft
KLBE 051747Z 21010KT 15SM SCT015 BKN022 26/22 A2997
KBTP - Butler Co., Pennsylvania, USA
Distance from station: WSW 52 mi
Updated: Jul 5 2022 1:56 pm
Overcast  
Overcast  
   Wind: WSW 8.1 mph
Wind: WSW 8.1 mph
Temperature: 75.2°F
Dew Point: 71.6°F
Humidity: 89%
Barometer: 29.97 inHg
Clouds: Overcast
Visibility: 10 mi
Cloud details: Mostly Cloudy 1400 ft,
Overcast 6000 ft
KBTP 051756Z AUTO 24007KT 10SM BKN014 OVC060 24/22 A2997 RMK AO2 SLP147 60078 T02390217 10239 20194 56006 TSNO
KUCP - New Castle Muni, Pennsylvania, USA
Distance from station: W 75 mi
Updated: Jul 5 2022 2:38 pm
Mostly Cloudy  
Mostly Cloudy  
   Wind: SW 10.4 mph<br />Gust to 10.4 mph
Wind: SW 10.4 mph
Gust to 10.4 mph
Temperature: 78.8°F
Dew Point: 71.6°F
Humidity: 79%
Barometer: 29.94 inHg
Clouds: Mostly Cloudy
Visibility: 10 mi
Cloud details: Partly Cloudy 1800 ft,
Partly Cloudy 2500 ft,
Mostly Cloudy 4500 ft
KUCP 051838Z AUTO 23009G14KT 190V250 10SM SCT018 SCT025 BKN045 26/22 A2994 RMK AO2
KFKL - Franklin, Pennsylvania, USA
Distance from station: WNW 54 mi
Updated: Jul 5 2022 1:56 pm
Light Rain, Overcast  
Light Rain, Overcast  
   Wind: WSW 10.4 mph
Wind: WSW 10.4 mph
Temperature: 71.6°F
Dew Point: 71.6°F
Humidity: 100%
Barometer: 29.96 inHg
Clouds: Overcast
Visibility: 10 mi
Cloud details: Mostly Cloudy 1000 ft,
Mostly Cloudy 3000 ft,
Overcast 4000 ft
KFKL 051756Z AUTO 24009KT 10SM -RA BKN010 BKN030 OVC040 22/22 A2996 RMK AO2 RAB37 CIG 007V012 SLP136 P0000 60026 T02220217 10222 20178 50001 $
KAOO - Altoona, Pennsylvania, USA
Distance from station: SE 57 mi
Updated: Jul 5 2022 2:23 pm
Partly Cloudy  
Partly Cloudy  
   Wind: SSW 6.9 mph
Wind: SSW 6.9 mph
Temperature: 75.2°F
Dew Point: 68°F
Humidity: 78%
Barometer: 29.97 inHg
Clouds: Partly Cloudy
Visibility: 10 mi
Cloud details: Partly Cloudy 700 ft
KAOO 051823Z AUTO 20006KT 10SM SCT007 24/20 A2997 RMK AO2 RAE05 P0000 T02440200
KUNV - State College, Pennsylvania, USA
Distance from station: E 61 mi
Updated: Jul 5 2022 1:53 pm
Mostly Cloudy  
Mostly Cloudy  
   Wind: SW 9.2 mph
Wind: SW 9.2 mph
Temperature: 69.8°F
Dew Point: 69.8°F
Humidity: 100%
Barometer: 29.96 inHg
Clouds: Mostly Cloudy
Visibility: 8 mi
Cloud details: Mostly Cloudy 6000 ft
KUNV 051753Z 22008KT 8SM BKN060 21/21 A2996
KBFD - Bradford, Pennsylvania, USA
Distance from station: NNE 62 mi
Updated: Jul 5 2022 2:38 pm
Overcast  
Overcast  
   Wind: WSW 13.8 mph<br />Gust to 13.8 mph
Wind: WSW 13.8 mph
Gust to 13.8 mph
Temperature: 75.2°F
Dew Point: 64.4°F
Humidity: 69%
Barometer: 29.94 inHg
Clouds: Overcast
Visibility: 10 mi
Cloud details: Few Clouds 1400 ft,
Mostly Cloudy 3000 ft,
Overcast 4400 ft
KBFD 051838Z AUTO 24012G16KT 10SM FEW014 BKN030 OVC044 24/18 A2994 RMK AO2 T02390183

Script developed by  Saratoga-weather.org Adapted for the template by  Weerstation Leuven

Equipment we use:

Weather-station
Davis VP2

Weather-program
Cumulus

Weather-server
Dell Latitude e5450

Provider
Host On A Rope

Davis VP2

Cumulus

Dell Latitude e5450

Host On A Rope